sensor_id;sensor_type;location;lat;lon;timestamp;temperature;humidity
14771;DHT22;7477;45.222;5.688;2022-10-31T00:03:18;13.60;99.90
14771;DHT22;7477;45.222;5.688;2022-10-31T00:06:37;13.60;99.90
14771;DHT22;7477;45.222;5.688;2022-10-31T00:09:57;13.60;99.90
14771;DHT22;7477;45.222;5.688;2022-10-31T00:13:16;13.50;99.90
14771;DHT22;7477;45.222;5.688;2022-10-31T00:16:36;13.50;99.90
14771;DHT22;7477;45.222;5.688;2022-10-31T00:19:55;13.40;99.90
14771;DHT22;7477;45.222;5.688;2022-10-31T00:23:15;13.40;99.90
14771;DHT22;7477;45.222;5.688;2022-10-31T00:26:34;13.40;99.90
14771;DHT22;7477;45.222;5.688;2022-10-31T00:29:53;13.30;99.90
14771;DHT22;7477;45.222;5.688;2022-10-31T00:33:12;13.30;99.90
14771;DHT22;7477;45.222;5.688;2022-10-31T00:36:31;13.30;99.90
14771;DHT22;7477;45.222;5.688;2022-10-31T00:39:50;13.30;99.90
14771;DHT22;7477;45.222;5.688;2022-10-31T00:43:10;13.20;99.90
14771;DHT22;7477;45.222;5.688;2022-10-31T00:46:29;13.30;99.90
14771;DHT22;7477;45.222;5.688;2022-10-31T00:49:48;13.20;99.90
14771;DHT22;7477;45.222;5.688;2022-10-31T00:53:07;13.20;99.90
14771;DHT22;7477;45.222;5.688;2022-10-31T00:56:26;13.20;99.90
14771;DHT22;7477;45.222;5.688;2022-10-31T00:59:45;13.10;99.90
14771;DHT22;7477;45.222;5.688;2022-10-31T01:03:04;13.10;99.90
14771;DHT22;7477;45.222;5.688;2022-10-31T01:06:23;13.10;99.90
14771;DHT22;7477;45.222;5.688;2022-10-31T01:09:42;13.10;99.90
14771;DHT22;7477;45.222;5.688;2022-10-31T01:13:01;13.00;99.90
14771;DHT22;7477;45.222;5.688;2022-10-31T01:16:23;13.10;99.90
14771;DHT22;7477;45.222;5.688;2022-10-31T01:19:43;13.00;99.90
14771;DHT22;7477;45.222;5.688;2022-10-31T01:23:03;13.00;99.90
14771;DHT22;7477;45.222;5.688;2022-10-31T01:26:28;13.00;99.90
14771;DHT22;7477;45.222;5.688;2022-10-31T01:29:49;13.00;99.90
14771;DHT22;7477;45.222;5.688;2022-10-31T01:33:08;12.90;99.90
14771;DHT22;7477;45.222;5.688;2022-10-31T01:36:29;12.90;99.90
14771;DHT22;7477;45.222;5.688;2022-10-31T01:39:49;12.90;99.90
14771;DHT22;7477;45.222;5.688;2022-10-31T01:43:14;12.90;99.90
14771;DHT22;7477;45.222;5.688;2022-10-31T01:46:38;12.90;99.90
14771;DHT22;7477;45.222;5.688;2022-10-31T01:50:02;12.90;99.90
14771;DHT22;7477;45.222;5.688;2022-10-31T01:53:22;12.90;99.90
14771;DHT22;7477;45.222;5.688;2022-10-31T01:56:45;12.90;99.90
14771;DHT22;7477;45.222;5.688;2022-10-31T02:00:08;12.90;99.90
14771;DHT22;7477;45.222;5.688;2022-10-31T02:03:29;12.80;99.90
14771;DHT22;7477;45.222;5.688;2022-10-31T02:06:59;12.80;99.90
14771;DHT22;7477;45.222;5.688;2022-10-31T02:10:22;12.90;99.90
14771;DHT22;7477;45.222;5.688;2022-10-31T02:13:42;12.80;99.90
14771;DHT22;7477;45.222;5.688;2022-10-31T02:17:01;12.80;99.90
14771;DHT22;7477;45.222;5.688;2022-10-31T02:20:22;12.80;99.90
14771;DHT22;7477;45.222;5.688;2022-10-31T02:34:39;12.70;99.90
14771;DHT22;7477;45.222;5.688;2022-10-31T02:41:46;12.70;99.90
14771;DHT22;7477;45.222;5.688;2022-10-31T02:45:08;12.70;99.90
14771;DHT22;7477;45.222;5.688;2022-10-31T02:48:33;12.70;99.90
14771;DHT22;7477;45.222;5.688;2022-10-31T02:51:55;12.70;99.90
14771;DHT22;7477;45.222;5.688;2022-10-31T02:58:59;12.60;99.90
14771;DHT22;7477;45.222;5.688;2022-10-31T03:17:01;12.60;99.90
14771;DHT22;7477;45.222;5.688;2022-10-31T03:20:26;12.60;99.90
14771;DHT22;7477;45.222;5.688;2022-10-31T03:23:48;12.60;99.90
14771;DHT22;7477;45.222;5.688;2022-10-31T03:27:12;12.60;99.90
14771;DHT22;7477;45.222;5.688;2022-10-31T03:30:35;12.60;99.90
14771;DHT22;7477;45.222;5.688;2022-10-31T03:33:58;12.60;99.90
14771;DHT22;7477;45.222;5.688;2022-10-31T03:37:20;12.60;99.90
14771;DHT22;7477;45.222;5.688;2022-10-31T03:40:43;12.60;99.90
14771;DHT22;7477;45.222;5.688;2022-10-31T03:44:08;12.60;99.90
14771;DHT22;7477;45.222;5.688;2022-10-31T03:47:29;12.50;99.90
14771;DHT22;7477;45.222;5.688;2022-10-31T03:58:28;12.60;99.90
14771;DHT22;7477;45.222;5.688;2022-10-31T04:01:55;12.60;99.90
14771;DHT22;7477;45.222;5.688;2022-10-31T04:05:17;12.50;99.90
14771;DHT22;7477;45.222;5.688;2022-10-31T04:08:51;12.50;99.90
14771;DHT22;7477;45.222;5.688;2022-10-31T04:12:14;12.50;99.90
14771;DHT22;7477;45.222;5.688;2022-10-31T04:15:35;12.50;99.90
14771;DHT22;7477;45.222;5.688;2022-10-31T04:18:56;12.50;99.90
14771;DHT22;7477;45.222;5.688;2022-10-31T04:22:15;12.60;99.90
14771;DHT22;7477;45.222;5.688;2022-10-31T04:25:35;12.50;99.90
14771;DHT22;7477;45.222;5.688;2022-10-31T04:28:54;12.50;99.90
14771;DHT22;7477;45.222;5.688;2022-10-31T04:32:13;12.50;99.90
14771;DHT22;7477;45.222;5.688;2022-10-31T04:35:32;12.40;99.90
14771;DHT22;7477;45.222;5.688;2022-10-31T04:38:51;12.40;99.90
14771;DHT22;7477;45.222;5.688;2022-10-31T04:42:11;12.40;99.90
14771;DHT22;7477;45.222;5.688;2022-10-31T04:45:30;12.40;99.90
14771;DHT22;7477;45.222;5.688;2022-10-31T04:48:49;12.40;99.90
14771;DHT22;7477;45.222;5.688;2022-10-31T04:52:08;12.40;99.90
14771;DHT22;7477;45.222;5.688;2022-10-31T04:55:27;12.40;99.90
14771;DHT22;7477;45.222;5.688;2022-10-31T04:58:46;12.40;99.90
14771;DHT22;7477;45.222;5.688;2022-10-31T05:02:05;12.40;99.90
14771;DHT22;7477;45.222;5.688;2022-10-31T05:05:27;12.40;99.90
14771;DHT22;7477;45.222;5.688;2022-10-31T05:08:47;12.40;99.90
14771;DHT22;7477;45.222;5.688;2022-10-31T05:12:06;12.40;99.90
14771;DHT22;7477;45.222;5.688;2022-10-31T05:15:26;12.40;99.90
14771;DHT22;7477;45.222;5.688;2022-10-31T05:18:46;12.30;99.90
14771;DHT22;7477;45.222;5.688;2022-10-31T05:22:07;12.30;99.90
14771;DHT22;7477;45.222;5.688;2022-10-31T05:25:28;12.30;99.90
14771;DHT22;7477;45.222;5.688;2022-10-31T05:28:48;12.30;99.90
14771;DHT22;7477;45.222;5.688;2022-10-31T05:32:07;12.30;99.90
14771;DHT22;7477;45.222;5.688;2022-10-31T05:35:31;12.30;99.90
14771;DHT22;7477;45.222;5.688;2022-10-31T05:38:50;12.20;99.90
14771;DHT22;7477;45.222;5.688;2022-10-31T05:42:09;12.20;99.90
14771;DHT22;7477;45.222;5.688;2022-10-31T05:45:29;12.10;99.90
14771;DHT22;7477;45.222;5.688;2022-10-31T05:48:48;12.10;99.90
14771;DHT22;7477;45.222;5.688;2022-10-31T05:52:07;12.10;99.90
14771;DHT22;7477;45.222;5.688;2022-10-31T05:55:26;12.10;99.90
14771;DHT22;7477;45.222;5.688;2022-10-31T05:58:46;12.10;99.90
14771;DHT22;7477;45.222;5.688;2022-10-31T06:02:05;12.10;99.90
14771;DHT22;7477;45.222;5.688;2022-10-31T06:05:24;12.10;99.90
14771;DHT22;7477;45.222;5.688;2022-10-31T06:08:44;12.10;99.90
14771;DHT22;7477;45.222;5.688;2022-10-31T06:12:03;12.10;99.90
14771;DHT22;7477;45.222;5.688;2022-10-31T06:15:22;12.10;99.90
14771;DHT22;7477;45.222;5.688;2022-10-31T06:18:42;12.10;99.90
14771;DHT22;7477;45.222;5.688;2022-10-31T06:22:01;12.10;99.90
14771;DHT22;7477;45.222;5.688;2022-10-31T06:25:20;12.10;99.90
14771;DHT22;7477;45.222;5.688;2022-10-31T06:28:40;12.10;99.90
14771;DHT22;7477;45.222;5.688;2022-10-31T06:31:59;12.10;99.90
14771;DHT22;7477;45.222;5.688;2022-10-31T06:35:18;12.10;99.90
14771;DHT22;7477;45.222;5.688;2022-10-31T06:38:37;12.10;99.90
14771;DHT22;7477;45.222;5.688;2022-10-31T06:41:56;12.10;99.90
14771;DHT22;7477;45.222;5.688;2022-10-31T06:45:15;12.10;99.90
14771;DHT22;7477;45.222;5.688;2022-10-31T06:48:35;12.10;99.90
14771;DHT22;7477;45.222;5.688;2022-10-31T06:51:55;12.10;99.90
14771;DHT22;7477;45.222;5.688;2022-10-31T06:55:15;12.10;99.90
14771;DHT22;7477;45.222;5.688;2022-10-31T06:58:34;12.20;99.90
14771;DHT22;7477;45.222;5.688;2022-10-31T07:01:53;12.20;99.90
14771;DHT22;7477;45.222;5.688;2022-10-31T07:05:12;12.20;99.90
14771;DHT22;7477;45.222;5.688;2022-10-31T07:08:32;12.20;99.90
14771;DHT22;7477;45.222;5.688;2022-10-31T07:11:52;12.20;99.90
14771;DHT22;7477;45.222;5.688;2022-10-31T07:15:12;12.30;99.90
14771;DHT22;7477;45.222;5.688;2022-10-31T07:18:31;12.30;99.90
14771;DHT22;7477;45.222;5.688;2022-10-31T07:21:50;12.30;99.90
14771;DHT22;7477;45.222;5.688;2022-10-31T07:25:10;12.30;99.90
14771;DHT22;7477;45.222;5.688;2022-10-31T07:28:29;12.40;99.90
14771;DHT22;7477;45.222;5.688;2022-10-31T07:31:48;12.30;99.90
14771;DHT22;7477;45.222;5.688;2022-10-31T07:35:09;12.30;99.90
14771;DHT22;7477;45.222;5.688;2022-10-31T07:38:29;12.40;99.90
14771;DHT22;7477;45.222;5.688;2022-10-31T07:41:48;12.40;99.90
14771;DHT22;7477;45.222;5.688;2022-10-31T07:45:14;12.40;99.90
14771;DHT22;7477;45.222;5.688;2022-10-31T07:48:33;12.40;99.90
14771;DHT22;7477;45.222;5.688;2022-10-31T07:51:53;12.40;99.90
14771;DHT22;7477;45.222;5.688;2022-10-31T07:55:12;12.50;99.90
14771;DHT22;7477;45.222;5.688;2022-10-31T07:58:32;12.50;99.90
14771;DHT22;7477;45.222;5.688;2022-10-31T08:01:51;12.50;99.90
14771;DHT22;7477;45.222;5.688;2022-10-31T08:05:10;12.50;99.90
14771;DHT22;7477;45.222;5.688;2022-10-31T08:08:30;12.50;99.90
14771;DHT22;7477;45.222;5.688;2022-10-31T08:11:49;12.60;99.90
14771;DHT22;7477;45.222;5.688;2022-10-31T08:15:09;12.60;99.90
14771;DHT22;7477;45.222;5.688;2022-10-31T08:18:28;12.70;99.90
14771;DHT22;7477;45.222;5.688;2022-10-31T08:21:52;12.70;99.90
14771;DHT22;7477;45.222;5.688;2022-10-31T08:25:13;12.80;99.90
14771;DHT22;7477;45.222;5.688;2022-10-31T08:28:32;12.80;99.90
14771;DHT22;7477;45.222;5.688;2022-10-31T08:31:52;12.80;99.90
14771;DHT22;7477;45.222;5.688;2022-10-31T08:35:11;12.90;99.90
14771;DHT22;7477;45.222;5.688;2022-10-31T08:38:30;12.90;99.90
14771;DHT22;7477;45.222;5.688;2022-10-31T08:41:50;13.00;99.90
14771;DHT22;7477;45.222;5.688;2022-10-31T08:45:09;13.10;99.90
14771;DHT22;7477;45.222;5.688;2022-10-31T08:48:29;13.20;99.90
14771;DHT22;7477;45.222;5.688;2022-10-31T08:51:48;13.10;99.90
14771;DHT22;7477;45.222;5.688;2022-10-31T08:55:08;13.20;99.90
14771;DHT22;7477;45.222;5.688;2022-10-31T08:58:27;13.30;99.90
14771;DHT22;7477;45.222;5.688;2022-10-31T09:01:46;13.40;99.90
14771;DHT22;7477;45.222;5.688;2022-10-31T09:05:06;13.50;99.90
14771;DHT22;7477;45.222;5.688;2022-10-31T09:08:25;13.50;99.90
14771;DHT22;7477;45.222;5.688;2022-10-31T09:11:45;13.60;99.90
14771;DHT22;7477;45.222;5.688;2022-10-31T09:15:04;13.60;99.90
14771;DHT22;7477;45.222;5.688;2022-10-31T09:18:25;13.50;99.90
14771;DHT22;7477;45.222;5.688;2022-10-31T09:21:46;13.60;99.90
14771;DHT22;7477;45.222;5.688;2022-10-31T09:25:06;13.70;99.90
14771;DHT22;7477;45.222;5.688;2022-10-31T09:28:25;13.80;99.90
14771;DHT22;7477;45.222;5.688;2022-10-31T09:31:44;13.80;99.90
14771;DHT22;7477;45.222;5.688;2022-10-31T09:35:04;13.80;99.90
14771;DHT22;7477;45.222;5.688;2022-10-31T09:38:23;13.80;99.90
14771;DHT22;7477;45.222;5.688;2022-10-31T09:42:07;13.80;99.90
14771;DHT22;7477;45.222;5.688;2022-10-31T09:45:53;13.80;99.90
14771;DHT22;7477;45.222;5.688;2022-10-31T09:49:53;13.90;99.90
14771;DHT22;7477;45.222;5.688;2022-10-31T09:56:58;14.00;99.90
14771;DHT22;7477;45.222;5.688;2022-10-31T10:00:21;14.10;99.90
14771;DHT22;7477;45.222;5.688;2022-10-31T10:03:45;14.10;99.90
14771;DHT22;7477;45.222;5.688;2022-10-31T10:14:56;14.30;99.90
14771;DHT22;7477;45.222;5.688;2022-10-31T10:22:21;14.30;99.90
14771;DHT22;7477;45.222;5.688;2022-10-31T10:25:47;14.30;99.90
14771;DHT22;7477;45.222;5.688;2022-10-31T10:33:02;14.40;99.90
14771;DHT22;7477;45.222;5.688;2022-10-31T10:36:42;14.50;99.90
14771;DHT22;7477;45.222;5.688;2022-10-31T10:40:24;14.50;99.90
14771;DHT22;7477;45.222;5.688;2022-10-31T10:43:44;14.50;99.90
14771;DHT22;7477;45.222;5.688;2022-10-31T10:47:03;14.60;99.90
14771;DHT22;7477;45.222;5.688;2022-10-31T10:50:47;14.70;99.90
14771;DHT22;7477;45.222;5.688;2022-10-31T10:58:03;14.70;99.90
14771;DHT22;7477;45.222;5.688;2022-10-31T11:01:23;14.80;99.90
14771;DHT22;7477;45.222;5.688;2022-10-31T11:04:43;14.90;99.90
14771;DHT22;7477;45.222;5.688;2022-10-31T11:08:04;14.80;99.90
14771;DHT22;7477;45.222;5.688;2022-10-31T11:11:26;14.90;99.90
14771;DHT22;7477;45.222;5.688;2022-10-31T11:14:50;14.90;99.90
14771;DHT22;7477;45.222;5.688;2022-10-31T11:18:19;15.00;99.90
14771;DHT22;7477;45.222;5.688;2022-10-31T11:21:41;14.90;99.90
14771;DHT22;7477;45.222;5.688;2022-10-31T11:25:00;15.00;99.90
14771;DHT22;7477;45.222;5.688;2022-10-31T11:28:19;15.00;99.90
14771;DHT22;7477;45.222;5.688;2022-10-31T11:31:39;15.00;99.90
14771;DHT22;7477;45.222;5.688;2022-10-31T11:35:02;15.10;99.90
14771;DHT22;7477;45.222;5.688;2022-10-31T11:38:34;15.20;99.90
14771;DHT22;7477;45.222;5.688;2022-10-31T11:42:01;15.30;99.90
14771;DHT22;7477;45.222;5.688;2022-10-31T11:45:31;15.40;99.90
14771;DHT22;7477;45.222;5.688;2022-10-31T11:48:53;15.20;99.90
14771;DHT22;7477;45.222;5.688;2022-10-31T11:52:23;15.20;99.90
14771;DHT22;7477;45.222;5.688;2022-10-31T11:55:44;15.20;99.90
14771;DHT22;7477;45.222;5.688;2022-10-31T11:59:05;15.40;99.90
14771;DHT22;7477;45.222;5.688;2022-10-31T12:02:25;15.50;99.90
14771;DHT22;7477;45.222;5.688;2022-10-31T12:05:48;15.40;99.90
14771;DHT22;7477;45.222;5.688;2022-10-31T12:09:28;15.60;99.90
14771;DHT22;7477;45.222;5.688;2022-10-31T12:12:54;15.60;99.90
14771;DHT22;7477;45.222;5.688;2022-10-31T12:24:01;15.80;99.90
14771;DHT22;7477;45.222;5.688;2022-10-31T12:38:42;15.90;99.90
14771;DHT22;7477;45.222;5.688;2022-10-31T12:42:44;16.00;99.90
14771;DHT22;7477;45.222;5.688;2022-10-31T12:46:15;16.00;99.90
14771;DHT22;7477;45.222;5.688;2022-10-31T12:49:49;16.10;99.90
14771;DHT22;7477;45.222;5.688;2022-10-31T12:57:11;16.40;99.90
14771;DHT22;7477;45.222;5.688;2022-10-31T13:00:33;16.30;99.90
14771;DHT22;7477;45.222;5.688;2022-10-31T13:08:12;16.30;99.90
14771;DHT22;7477;45.222;5.688;2022-10-31T13:11:27;16.40;99.90
14771;DHT22;7477;45.222;5.688;2022-10-31T13:15:51;16.30;99.90
14771;DHT22;7477;45.222;5.688;2022-10-31T13:19:01;16.30;99.90
14771;DHT22;7477;45.222;5.688;2022-10-31T13:22:29;16.50;99.90
14771;DHT22;7477;45.222;5.688;2022-10-31T13:25:54;16.50;99.90
14771;DHT22;7477;45.222;5.688;2022-10-31T13:29:17;16.50;99.90
14771;DHT22;7477;45.222;5.688;2022-10-31T13:33:01;16.50;99.90
14771;DHT22;7477;45.222;5.688;2022-10-31T13:36:39;16.60;99.90
14771;DHT22;7477;45.222;5.688;2022-10-31T13:47:27;16.60;99.90
14771;DHT22;7477;45.222;5.688;2022-10-31T13:50:57;16.70;99.90
14771;DHT22;7477;45.222;5.688;2022-10-31T13:54:44;16.70;99.90
14771;DHT22;7477;45.222;5.688;2022-10-31T13:58:17;16.70;99.90
14771;DHT22;7477;45.222;5.688;2022-10-31T14:01:53;16.80;99.90
14771;DHT22;7477;45.222;5.688;2022-10-31T14:05:25;16.90;99.90
14771;DHT22;7477;45.222;5.688;2022-10-31T14:08:50;16.80;99.90
14771;DHT22;7477;45.222;5.688;2022-10-31T14:12:37;16.90;99.90
14771;DHT22;7477;45.222;5.688;2022-10-31T14:16:01;16.80;99.90
14771;DHT22;7477;45.222;5.688;2022-10-31T14:19:22;17.00;99.90
14771;DHT22;7477;45.222;5.688;2022-10-31T14:22:41;16.90;99.90
14771;DHT22;7477;45.222;5.688;2022-10-31T14:29:44;16.90;99.90
14771;DHT22;7477;45.222;5.688;2022-10-31T14:33:16;17.00;99.90
14771;DHT22;7477;45.222;5.688;2022-10-31T14:36:54;17.00;99.90
14771;DHT22;7477;45.222;5.688;2022-10-31T14:45:02;17.00;99.90
14771;DHT22;7477;45.222;5.688;2022-10-31T14:48:37;16.90;99.90
14771;DHT22;7477;45.222;5.688;2022-10-31T14:51:59;16.90;99.90
14771;DHT22;7477;45.222;5.688;2022-10-31T14:55:19;16.80;99.90
14771;DHT22;7477;45.222;5.688;2022-10-31T14:58:42;16.90;99.90
14771;DHT22;7477;45.222;5.688;2022-10-31T15:05:34;17.00;99.90
14771;DHT22;7477;45.222;5.688;2022-10-31T15:08:59;17.00;99.90
14771;DHT22;7477;45.222;5.688;2022-10-31T15:12:26;16.90;99.90
14771;DHT22;7477;45.222;5.688;2022-10-31T15:15:45;16.90;99.90
14771;DHT22;7477;45.222;5.688;2022-10-31T15:19:07;17.00;99.90
14771;DHT22;7477;45.222;5.688;2022-10-31T15:22:30;16.90;99.90
14771;DHT22;7477;45.222;5.688;2022-10-31T15:25:50;17.00;99.90
14771;DHT22;7477;45.222;5.688;2022-10-31T15:29:22;17.00;99.90
14771;DHT22;7477;45.222;5.688;2022-10-31T15:32:44;17.00;99.90
14771;DHT22;7477;45.222;5.688;2022-10-31T15:36:04;17.00;99.90
14771;DHT22;7477;45.222;5.688;2022-10-31T15:39:24;17.20;99.90
14771;DHT22;7477;45.222;5.688;2022-10-31T15:42:45;17.30;99.90
14771;DHT22;7477;45.222;5.688;2022-10-31T15:46:09;17.30;99.90
14771;DHT22;7477;45.222;5.688;2022-10-31T15:49:50;17.30;99.90
14771;DHT22;7477;45.222;5.688;2022-10-31T15:53:18;17.30;99.90
14771;DHT22;7477;45.222;5.688;2022-10-31T15:56:38;17.30;99.90
14771;DHT22;7477;45.222;5.688;2022-10-31T15:59:58;17.30;99.90
14771;DHT22;7477;45.222;5.688;2022-10-31T16:06:36;17.20;99.90
14771;DHT22;7477;45.222;5.688;2022-10-31T16:09:58;17.20;99.90
14771;DHT22;7477;45.222;5.688;2022-10-31T16:13:21;17.10;99.90
14771;DHT22;7477;45.222;5.688;2022-10-31T16:16:46;17.10;99.90
14771;DHT22;7477;45.222;5.688;2022-10-31T16:20:16;17.00;99.90
14771;DHT22;7477;45.222;5.688;2022-10-31T16:23:43;17.00;99.90
14771;DHT22;7477;45.222;5.688;2022-10-31T16:27:05;17.00;99.90
14771;DHT22;7477;45.222;5.688;2022-10-31T16:30:39;16.90;99.90
14771;DHT22;7477;45.222;5.688;2022-10-31T16:34:25;16.80;99.90
14771;DHT22;7477;45.222;5.688;2022-10-31T16:37:45;16.80;99.90
14771;DHT22;7477;45.222;5.688;2022-10-31T16:41:04;16.80;99.90
14771;DHT22;7477;45.222;5.688;2022-10-31T16:44:25;16.80;99.90
14771;DHT22;7477;45.222;5.688;2022-10-31T16:47:45;16.80;99.90
14771;DHT22;7477;45.222;5.688;2022-10-31T16:51:07;16.70;99.90
14771;DHT22;7477;45.222;5.688;2022-10-31T16:54:28;16.60;99.90
14771;DHT22;7477;45.222;5.688;2022-10-31T16:57:55;16.60;99.90
14771;DHT22;7477;45.222;5.688;2022-10-31T17:01:16;16.60;99.90
14771;DHT22;7477;45.222;5.688;2022-10-31T17:04:35;16.50;99.90
14771;DHT22;7477;45.222;5.688;2022-10-31T17:07:55;16.50;99.90
14771;DHT22;7477;45.222;5.688;2022-10-31T17:11:19;16.30;99.90
14771;DHT22;7477;45.222;5.688;2022-10-31T17:14:39;16.40;99.90
14771;DHT22;7477;45.222;5.688;2022-10-31T17:17:58;16.40;99.90
14771;DHT22;7477;45.222;5.688;2022-10-31T17:21:21;16.30;99.90
14771;DHT22;7477;45.222;5.688;2022-10-31T17:24:41;16.20;99.90
14771;DHT22;7477;45.222;5.688;2022-10-31T17:28:00;16.20;99.90
14771;DHT22;7477;45.222;5.688;2022-10-31T17:31:27;16.10;99.90
14771;DHT22;7477;45.222;5.688;2022-10-31T17:34:46;16.10;99.90
14771;DHT22;7477;45.222;5.688;2022-10-31T17:38:06;16.20;99.90
14771;DHT22;7477;45.222;5.688;2022-10-31T17:41:25;16.20;99.90
14771;DHT22;7477;45.222;5.688;2022-10-31T17:44:45;16.10;99.90
14771;DHT22;7477;45.222;5.688;2022-10-31T17:48:05;16.00;99.90
14771;DHT22;7477;45.222;5.688;2022-10-31T17:51:24;16.10;99.90
14771;DHT22;7477;45.222;5.688;2022-10-31T17:54:43;16.00;99.90
14771;DHT22;7477;45.222;5.688;2022-10-31T17:58:02;16.00;99.90
14771;DHT22;7477;45.222;5.688;2022-10-31T18:01:22;16.00;99.90
14771;DHT22;7477;45.222;5.688;2022-10-31T18:04:42;15.90;99.90
14771;DHT22;7477;45.222;5.688;2022-10-31T18:08:01;15.90;99.90
14771;DHT22;7477;45.222;5.688;2022-10-31T18:11:20;15.80;99.90
14771;DHT22;7477;45.222;5.688;2022-10-31T18:14:41;15.70;99.90
14771;DHT22;7477;45.222;5.688;2022-10-31T18:18:00;15.60;99.90
14771;DHT22;7477;45.222;5.688;2022-10-31T18:21:20;15.60;99.90
14771;DHT22;7477;45.222;5.688;2022-10-31T18:24:39;15.50;99.90
14771;DHT22;7477;45.222;5.688;2022-10-31T18:27:59;15.60;99.90
14771;DHT22;7477;45.222;5.688;2022-10-31T18:31:19;15.50;99.90
14771;DHT22;7477;45.222;5.688;2022-10-31T18:34:38;15.30;99.90
14771;DHT22;7477;45.222;5.688;2022-10-31T18:37:58;15.30;99.90
14771;DHT22;7477;45.222;5.688;2022-10-31T18:41:17;15.20;99.90
14771;DHT22;7477;45.222;5.688;2022-10-31T18:44:37;15.10;99.90
14771;DHT22;7477;45.222;5.688;2022-10-31T18:47:56;15.00;99.90
14771;DHT22;7477;45.222;5.688;2022-10-31T18:51:15;15.10;99.90
14771;DHT22;7477;45.222;5.688;2022-10-31T18:54:36;15.00;99.90
14771;DHT22;7477;45.222;5.688;2022-10-31T18:57:55;16.10;99.90
14771;DHT22;7477;45.222;5.688;2022-10-31T19:01:16;16.90;99.90
14771;DHT22;7477;45.222;5.688;2022-10-31T19:04:36;16.20;99.90
14771;DHT22;7477;45.222;5.688;2022-10-31T19:07:55;15.50;99.90
14771;DHT22;7477;45.222;5.688;2022-10-31T19:11:15;15.20;99.90
14771;DHT22;7477;45.222;5.688;2022-10-31T19:14:34;15.10;99.90
14771;DHT22;7477;45.222;5.688;2022-10-31T19:17:54;15.10;99.90
14771;DHT22;7477;45.222;5.688;2022-10-31T19:21:15;15.20;99.90
14771;DHT22;7477;45.222;5.688;2022-10-31T19:24:35;15.10;99.90
14771;DHT22;7477;45.222;5.688;2022-10-31T19:27:54;15.10;99.90
14771;DHT22;7477;45.222;5.688;2022-10-31T19:31:13;15.10;99.90
14771;DHT22;7477;45.222;5.688;2022-10-31T19:34:33;15.00;99.90
14771;DHT22;7477;45.222;5.688;2022-10-31T19:37:52;15.00;99.90
14771;DHT22;7477;45.222;5.688;2022-10-31T19:41:25;15.00;99.90
14771;DHT22;7477;45.222;5.688;2022-10-31T19:44:45;15.40;99.90
14771;DHT22;7477;45.222;5.688;2022-10-31T19:48:04;16.60;99.90
14771;DHT22;7477;45.222;5.688;2022-10-31T19:51:23;16.80;99.90
14771;DHT22;7477;45.222;5.688;2022-10-31T19:54:42;16.80;99.90
14771;DHT22;7477;45.222;5.688;2022-10-31T19:58:01;17.20;99.90
14771;DHT22;7477;45.222;5.688;2022-10-31T20:01:22;17.10;99.90
14771;DHT22;7477;45.222;5.688;2022-10-31T20:04:41;16.70;99.90
14771;DHT22;7477;45.222;5.688;2022-10-31T20:08:00;16.50;99.90
14771;DHT22;7477;45.222;5.688;2022-10-31T20:11:23;16.20;99.90
14771;DHT22;7477;45.222;5.688;2022-10-31T20:14:43;16.40;99.90
14771;DHT22;7477;45.222;5.688;2022-10-31T20:18:02;17.10;99.90
14771;DHT22;7477;45.222;5.688;2022-10-31T20:21:23;16.90;99.90
14771;DHT22;7477;45.222;5.688;2022-10-31T20:24:44;16.60;99.90
14771;DHT22;7477;45.222;5.688;2022-10-31T20:28:04;16.60;99.90
14771;DHT22;7477;45.222;5.688;2022-10-31T20:31:25;17.10;99.90
14771;DHT22;7477;45.222;5.688;2022-10-31T20:34:45;17.30;99.90
14771;DHT22;7477;45.222;5.688;2022-10-31T20:38:04;17.80;99.90
14771;DHT22;7477;45.222;5.688;2022-10-31T20:41:23;17.90;99.90
14771;DHT22;7477;45.222;5.688;2022-10-31T20:44:43;17.70;99.90
14771;DHT22;7477;45.222;5.688;2022-10-31T20:48:02;17.70;99.90
14771;DHT22;7477;45.222;5.688;2022-10-31T20:51:24;17.70;99.90
14771;DHT22;7477;45.222;5.688;2022-10-31T20:54:43;18.10;99.90
14771;DHT22;7477;45.222;5.688;2022-10-31T20:58:03;18.30;99.90
14771;DHT22;7477;45.222;5.688;2022-10-31T21:01:24;17.90;99.90
14771;DHT22;7477;45.222;5.688;2022-10-31T21:04:45;17.90;99.90
14771;DHT22;7477;45.222;5.688;2022-10-31T21:08:04;17.40;99.90
14771;DHT22;7477;45.222;5.688;2022-10-31T21:11:25;17.50;99.90
14771;DHT22;7477;45.222;5.688;2022-10-31T21:14:45;17.40;99.90
14771;DHT22;7477;45.222;5.688;2022-10-31T21:18:04;17.30;99.90
14771;DHT22;7477;45.222;5.688;2022-10-31T21:21:30;17.90;99.90
14771;DHT22;7477;45.222;5.688;2022-10-31T21:24:49;17.80;99.90
14771;DHT22;7477;45.222;5.688;2022-10-31T21:28:09;18.10;99.90
14771;DHT22;7477;45.222;5.688;2022-10-31T21:31:29;18.10;99.90
14771;DHT22;7477;45.222;5.688;2022-10-31T21:34:49;18.20;99.90
14771;DHT22;7477;45.222;5.688;2022-10-31T21:38:09;18.10;99.90
14771;DHT22;7477;45.222;5.688;2022-10-31T21:41:28;18.20;99.90
14771;DHT22;7477;45.222;5.688;2022-10-31T21:44:48;18.20;99.90
14771;DHT22;7477;45.222;5.688;2022-10-31T21:48:08;18.00;99.90
14771;DHT22;7477;45.222;5.688;2022-10-31T21:51:30;17.70;99.90
14771;DHT22;7477;45.222;5.688;2022-10-31T21:54:49;17.50;99.90
14771;DHT22;7477;45.222;5.688;2022-10-31T21:58:08;17.60;99.90
14771;DHT22;7477;45.222;5.688;2022-10-31T22:01:28;17.70;99.90
14771;DHT22;7477;45.222;5.688;2022-10-31T22:04:48;17.80;99.90
14771;DHT22;7477;45.222;5.688;2022-10-31T22:08:09;17.70;99.90
14771;DHT22;7477;45.222;5.688;2022-10-31T22:11:28;17.80;99.90
14771;DHT22;7477;45.222;5.688;2022-10-31T22:14:48;17.80;99.90
14771;DHT22;7477;45.222;5.688;2022-10-31T22:18:07;17.60;99.90
14771;DHT22;7477;45.222;5.688;2022-10-31T22:21:27;17.70;99.90
14771;DHT22;7477;45.222;5.688;2022-10-31T22:24:46;17.80;99.90
14771;DHT22;7477;45.222;5.688;2022-10-31T22:28:05;17.80;99.90
14771;DHT22;7477;45.222;5.688;2022-10-31T22:31:27;17.80;99.90
14771;DHT22;7477;45.222;5.688;2022-10-31T22:34:47;17.90;99.90
14771;DHT22;7477;45.222;5.688;2022-10-31T22:38:07;17.90;99.90
14771;DHT22;7477;45.222;5.688;2022-10-31T22:41:31;17.90;99.90
14771;DHT22;7477;45.222;5.688;2022-10-31T22:44:51;17.70;99.90
14771;DHT22;7477;45.222;5.688;2022-10-31T22:48:10;17.60;99.90
14771;DHT22;7477;45.222;5.688;2022-10-31T22:51:32;17.60;99.90
14771;DHT22;7477;45.222;5.688;2022-10-31T22:54:52;17.50;99.90
14771;DHT22;7477;45.222;5.688;2022-10-31T22:58:11;17.60;99.90
14771;DHT22;7477;45.222;5.688;2022-10-31T23:01:31;17.70;99.90
14771;DHT22;7477;45.222;5.688;2022-10-31T23:04:51;17.70;99.90
14771;DHT22;7477;45.222;5.688;2022-10-31T23:08:11;17.70;99.90
14771;DHT22;7477;45.222;5.688;2022-10-31T23:11:36;17.70;99.90
14771;DHT22;7477;45.222;5.688;2022-10-31T23:14:56;17.70;99.90
14771;DHT22;7477;45.222;5.688;2022-10-31T23:18:15;17.60;99.90
14771;DHT22;7477;45.222;5.688;2022-10-31T23:21:39;17.70;99.90
14771;DHT22;7477;45.222;5.688;2022-10-31T23:25:16;17.80;99.90
14771;DHT22;7477;45.222;5.688;2022-10-31T23:28:55;18.20;99.90
14771;DHT22;7477;45.222;5.688;2022-10-31T23:32:24;18.30;99.90